createdAt,value
2023-01-09T00:00:48.665Z,99361.59
2023-01-09T00:06:10.558Z,99366.06
2023-01-09T00:11:35.389Z,99363.88
2023-01-09T00:16:57.306Z,99362.00
2023-01-09T00:22:19.062Z,99361.44
2023-01-09T00:27:40.784Z,99364.81
2023-01-09T00:33:02.692Z,99371.75
2023-01-09T00:38:24.595Z,99383.47
2023-01-09T00:43:52.045Z,99385.69
2023-01-09T00:49:15.351Z,99380.72
2023-01-09T00:54:38.193Z,99380.50
2023-01-09T01:00:00.446Z,99369.97
2023-01-09T01:05:40.959Z,99374.16
2023-01-09T01:11:09.395Z,99369.72
2023-01-09T01:16:31.221Z,99385.81
2023-01-09T01:21:52.929Z,99379.72
2023-01-09T01:27:14.753Z,99374.50
2023-01-09T01:32:37.188Z,99384.75
2023-01-09T01:37:59.229Z,99388.94
2023-01-09T01:43:20.965Z,99381.19
2023-01-09T01:48:42.694Z,99388.69
2023-01-09T01:54:10.916Z,99380.94
2023-01-09T01:59:41.166Z,99393.16
2023-01-09T02:05:03.402Z,99389.81
2023-01-09T02:10:25.702Z,99378.19
2023-01-09T02:16:02.492Z,99375.72
2023-01-09T02:21:45.373Z,99386.25
2023-01-09T02:27:18.789Z,99383.78
2023-01-09T02:33:00.264Z,99370.50
2023-01-09T02:39:09.844Z,99381.03
2023-01-09T02:44:34.591Z,99383.25
2023-01-09T02:50:00.468Z,99374.41
2023-01-09T02:55:27.860Z,99378.28
2023-01-09T03:01:01.423Z,99370.25
2023-01-09T03:06:28.879Z,99364.19
2023-01-09T03:11:55.977Z,99362.78
2023-01-09T03:17:28.542Z,99360.31
2023-01-09T03:22:57.974Z,99353.94
2023-01-09T03:28:28.130Z,99361.72
2023-01-09T03:33:50.223Z,99358.41
2023-01-09T03:39:11.945Z,99357.88
2023-01-09T03:44:33.680Z,99364.53
2023-01-09T03:49:55.344Z,99367.28
2023-01-09T03:55:17.380Z,99371.47
2023-01-09T04:00:40.468Z,99380.06
2023-01-09T04:06:02.164Z,99370.94
2023-01-09T04:11:23.879Z,99365.69
2023-01-09T04:16:45.645Z,99356.81
2023-01-09T04:27:29.106Z,99363.47
2023-01-09T04:32:52.238Z,99360.16
2023-01-09T04:38:14.044Z,99348.53
2023-01-09T04:43:35.759Z,99348.00
2023-01-09T04:48:57.458Z,99346.31
2023-01-09T04:54:19.817Z,99347.44
2023-01-09T04:59:41.606Z,99336.34
2023-01-09T05:05:03.753Z,99344.97
2023-01-09T05:10:25.481Z,99346.38
2023-01-09T05:15:47.199Z,99346.38
2023-01-09T05:21:08.977Z,99356.91
2023-01-09T05:26:30.791Z,99357.22
2023-01-09T05:31:53.092Z,99344.47
2023-01-09T05:37:14.978Z,99355.56
2023-01-09T05:42:36.924Z,99356.94
2023-01-09T05:47:58.666Z,99356.41
2023-01-09T05:53:20.484Z,99374.13
2023-01-09T05:58:42.468Z,99378.03
2023-01-09T06:04:04.329Z,99381.91
2023-01-09T06:09:26.071Z,99381.06
2023-01-09T06:14:47.887Z,99374.69
2023-01-09T06:20:10.658Z,99398.78
2023-01-09T06:25:32.434Z,99389.66
2023-01-09T06:30:54.236Z,99388.56
2023-01-09T06:36:16.230Z,99392.97
2023-01-09T06:41:38.170Z,99405.13
2023-01-09T06:46:59.947Z,99415.38
2023-01-09T06:52:21.670Z,99423.69
2023-01-09T06:57:43.875Z,99432.81
2023-01-09T07:03:06.034Z,99444.19
2023-01-09T07:08:27.946Z,99453.88
2023-01-09T07:13:50.163Z,99459.72
2023-01-09T07:19:11.904Z,99471.63
2023-01-09T07:24:33.641Z,99479.41
2023-01-09T07:29:55.424Z,99478.56
2023-01-09T07:35:17.225Z,99490.19
2023-01-09T07:40:39.471Z,99492.69
2023-01-09T07:46:01.293Z,99497.16
2023-01-09T07:51:23.022Z,99503.81
2023-01-09T07:56:44.811Z,99517.66
2023-01-09T08:02:07.476Z,99528.19
2023-01-09T08:07:29.888Z,99543.97
2023-01-09T08:12:51.698Z,99543.16
2023-01-09T08:18:13.576Z,99558.09
2023-01-09T08:23:35.301Z,99561.97
2023-01-09T08:28:56.965Z,99572.22
2023-01-09T08:34:18.683Z,99582.47
2023-01-09T08:39:40.382Z,99578.03
2023-01-09T08:45:20.458Z,99585.53
2023-01-09T08:50:42.165Z,99606.81
2023-01-09T08:56:04.356Z,99606.81
2023-01-09T09:01:26.139Z,99616.81
2023-01-09T09:06:47.934Z,99629.00
2023-01-09T09:12:09.753Z,99639.25
2023-01-09T09:17:33.050Z,99659.72
2023-01-09T09:22:55.072Z,99671.91
2023-01-09T09:28:17.081Z,99680.50
2023-01-09T09:33:38.786Z,99698.78
2023-01-09T09:39:02.722Z,99704.34
2023-01-09T09:44:52.763Z,99708.72
2023-01-09T09:50:51.857Z,99727.03
2023-01-09T09:56:17.329Z,99744.75
2023-01-09T10:02:05.313Z,99757.47
2023-01-09T10:07:35.245Z,99774.09
2023-01-09T10:12:59.129Z,99775.19
2023-01-09T10:19:03.732Z,99788.22
2023-01-09T10:24:48.536Z,99797.63
2023-01-09T10:30:46.184Z,99799.59
2023-01-09T10:36:26.052Z,99806.78
2023-01-09T10:42:05.762Z,99815.91
2023-01-09T10:47:39.570Z,99815.34
2023-01-09T10:53:12.809Z,99829.19
2023-01-09T10:58:34.601Z,99837.22
2023-01-09T11:03:59.287Z,99837.22
2023-01-09T11:09:21.062Z,99840.00
2023-01-09T11:14:42.738Z,99853.03
2023-01-09T11:20:16.662Z,99853.03
2023-01-09T11:25:52.696Z,99857.72
2023-01-09T11:31:14.712Z,99863.25
2023-01-09T11:36:36.623Z,99869.84
2023-01-09T11:42:04.294Z,99872.13
2023-01-09T11:47:39.431Z,99876.56
2023-01-09T11:53:15.233Z,99879.06
2023-01-09T11:58:37.004Z,99888.75
2023-01-09T12:04:17.588Z,99897.63
2023-01-09T12:10:10.250Z,99890.41
2023-01-09T12:15:58.180Z,99895.09
2023-01-09T12:21:41.740Z,99895.38
2023-01-09T12:27:45.118Z,99897.56
2023-01-09T12:33:12.907Z,99909.72
2023-01-09T12:38:37.477Z,99906.97
2023-01-09T12:44:34.991Z,99913.09
2023-01-09T12:50:09.927Z,99911.41
2023-01-09T12:55:37.418Z,99921.91
2023-01-09T13:01:02.945Z,99919.41
2023-01-09T13:06:26.118Z,99928.00
2023-01-09T13:11:58.032Z,99917.75
2023-01-09T13:17:27.974Z,99931.59
2023-01-09T13:22:52.574Z,99939.31
2023-01-09T13:28:22.972Z,99940.19
2023-01-09T13:33:55.001Z,99950.41
2023-01-09T13:39:22.916Z,99962.00
2023-01-09T13:44:47.389Z,99965.06
2023-01-09T13:50:11.667Z,99972.25
2023-01-09T13:55:36.201Z,99981.66
2023-01-09T14:01:04.852Z,99984.16
2023-01-09T14:06:28.305Z,99998.28
2023-01-09T14:12:03.541Z,100014.59
2023-01-09T14:17:37.402Z,100020.44
2023-01-09T14:28:42.698Z,100045.63
2023-01-09T14:34:36.862Z,100054.75
2023-01-09T14:39:58.852Z,100063.56
2023-01-09T14:45:27.612Z,100090.16
2023-01-09T14:50:55.501Z,100117.28
2023-01-09T14:56:29.377Z,100133.88
2023-01-09T15:01:55.510Z,100143.31
2023-01-09T15:07:23.237Z,100153.53
2023-01-09T15:12:51.369Z,100154.63
2023-01-09T15:18:29.365Z,100171.53
2023-01-09T15:23:51.219Z,100174.28
2023-01-09T15:29:17.947Z,100186.44
2023-01-09T15:34:40.019Z,100196.69
2023-01-09T15:40:05.046Z,100224.34
2023-01-09T15:45:44.380Z,100225.22
2023-01-09T15:51:07.117Z,100245.38
2023-01-09T15:56:33.502Z,100263.06
2023-01-09T16:02:21.088Z,100265.84
2023-01-09T16:07:47.784Z,100278.00
2023-01-09T16:13:14.774Z,100288.22
2023-01-09T16:18:38.952Z,100288.50
2023-01-09T16:24:08.238Z,100299.84
2023-01-09T16:29:37.759Z,100315.34
2023-01-09T16:35:04.617Z,100327.75
2023-01-09T16:40:30.090Z,100344.38
2023-01-09T16:45:51.903Z,100354.59
2023-01-09T16:51:19.358Z,100360.97
2023-01-09T16:56:43.314Z,100360.16
2023-01-09T17:02:17.826Z,100370.13
2023-01-09T17:07:39.688Z,100390.88
2023-01-09T17:13:01.405Z,100404.13
2023-01-09T17:18:25.466Z,100408.78
2023-01-09T17:23:48.036Z,100429.25
2023-01-09T17:29:09.745Z,100441.19
2023-01-09T17:34:31.579Z,100451.41
2023-01-09T17:39:53.328Z,100464.16
2023-01-09T17:45:15.694Z,100468.59
2023-01-09T17:50:37.443Z,100469.69
2023-01-09T17:56:00.326Z,100481.63
2023-01-09T18:01:22.257Z,100509.28
2023-01-09T18:06:44.405Z,100521.19
2023-01-09T18:12:06.256Z,100523.13
2023-01-09T18:17:27.991Z,100544.41
2023-01-09T18:22:49.811Z,100558.25
2023-01-09T18:28:15.779Z,100567.66
2023-01-09T18:33:37.491Z,100584.84
2023-01-09T18:39:01.283Z,100599.72
2023-01-09T18:44:23.803Z,100614.13
2023-01-09T18:49:45.481Z,100624.88
2023-01-09T18:55:07.539Z,100635.44
2023-01-09T19:00:29.347Z,100661.16
2023-01-09T19:05:51.050Z,100664.44
2023-01-09T19:11:12.864Z,100676.53
2023-01-09T19:16:34.605Z,100683.19
2023-01-09T19:21:57.385Z,100694.75
2023-01-09T19:27:19.172Z,100706.34
2023-01-09T19:32:40.969Z,100732.13
2023-01-09T19:38:02.769Z,100737.78
2023-01-09T19:43:27.561Z,100748.81
2023-01-09T19:48:49.888Z,100760.59
2023-01-09T19:54:12.274Z,100781.19
2023-01-09T19:59:35.936Z,100787.28
2023-01-09T20:04:57.811Z,100804.97
2023-01-09T20:10:19.545Z,100810.66
2023-01-09T20:15:41.552Z,100824.19
2023-01-09T20:21:03.852Z,100841.59
2023-01-09T20:26:26.522Z,100850.09
2023-01-09T20:31:48.292Z,100847.84
2023-01-09T20:37:10.410Z,100844.13
2023-01-09T20:42:32.149Z,100858.13
2023-01-09T20:47:54.517Z,100866.78
2023-01-09T20:53:16.262Z,100876.25
2023-01-09T20:58:38.062Z,100884.78
2023-01-09T21:03:59.937Z,100884.88
2023-01-09T21:09:21.776Z,100891.91
2023-01-09T21:14:43.509Z,100893.28
2023-01-09T21:20:09.289Z,100916.06
2023-01-09T21:25:30.991Z,100930.72
2023-01-09T21:30:53.893Z,100935.94
2023-01-09T21:36:16.018Z,100934.13
2023-01-09T21:41:56.509Z,100957.06
2023-01-09T21:47:18.304Z,100966.09
2023-01-09T21:52:40.051Z,100966.50
2023-01-09T21:58:01.988Z,100971.13
2023-01-09T22:03:23.762Z,100974.63
2023-01-09T22:08:45.594Z,100979.47
2023-01-09T22:14:07.527Z,101000.41
2023-01-09T22:19:29.263Z,101016.13
2023-01-09T22:24:51.629Z,101034.84
2023-01-09T22:30:13.802Z,101046.91
2023-01-09T22:35:35.530Z,101065.94
2023-01-09T22:40:57.330Z,101080.47
2023-01-09T22:46:19.146Z,101090.03
2023-01-09T22:51:41.085Z,101107.13
2023-01-09T22:57:02.830Z,101121.41
2023-01-09T23:02:24.701Z,101137.13
2023-01-09T23:07:46.521Z,101140.06
2023-01-09T23:13:08.250Z,101156.59
2023-01-09T23:18:30.482Z,101157.59
2023-01-09T23:23:52.217Z,101170.50
2023-01-09T23:29:14.394Z,101179.56
2023-01-09T23:34:36.121Z,101196.75
2023-01-09T23:39:57.808Z,101207.25
2023-01-09T23:45:19.607Z,101217.38
2023-01-09T23:50:49.100Z,101234.50
2023-01-09T23:56:10.959Z,101241.88
